Time;durP1;ratioP1;P1;durP2;ratioP2;P2;SDS_P1;SDS_P2;PMS_P1;PMS_P2;Temp;Humidity;BMP_temperature;BMP_pressure;BME280_temperature;BME280_humidity;BME280_pressure;Samples;Min_cycle;Max_cycle;Signal;HPM_P1;HPM_P2
2021/05/29 00:02:22;;;;;;;6.20;4.13;;;7.50;99.90;;;;;;5014058;28;20288;-66
2021/05/29 00:04:49;;;;;;;3.33;3.13;;;7.40;99.90;;;;;;5013957;28;20595;-66
2021/05/29 00:07:14;;;;;;;3.73;3.30;;;7.40;99.90;;;;;;5013940;28;20176;-66
2021/05/29 00:09:40;;;;;;;3.70;3.40;;;7.40;99.90;;;;;;5013466;28;20407;-66
2021/05/29 00:12:08;;;;;;;4.47;4.10;;;7.30;99.90;;;;;;5013800;28;20680;-67
2021/05/29 00:14:35;;;;;;;4.30;3.90;;;7.30;99.90;;;;;;5013775;28;20169;-66
2021/05/29 00:17:01;;;;;;;3.57;3.27;;;7.30;99.90;;;;;;5013947;28;20843;-66
2021/05/29 00:19:26;;;;;;;5.67;3.70;;;7.30;99.90;;;;;;5013521;28;20444;-66
2021/05/29 00:21:52;;;;;;;4.80;3.53;;;7.20;99.90;;;;;;5013616;28;20420;-67
2021/05/29 00:24:18;;;;;;;6.60;3.53;;;7.10;99.90;;;;;;5013583;28;20229;-66
2021/05/29 00:26:43;;;;;;;4.23;3.40;;;7.10;99.90;;;;;;5013604;28;20242;-66
2021/05/29 00:29:09;;;;;;;3.03;2.73;;;7.00;99.90;;;;;;5013284;28;20176;-66
2021/05/29 00:31:35;;;;;;;3.93;3.00;;;7.00;99.90;;;;;;5013258;28;20235;-66
2021/05/29 00:34:00;;;;;;;3.67;3.10;;;7.00;99.90;;;;;;5013527;28;20172;-66
2021/05/29 00:36:26;;;;;;;3.87;3.57;;;6.90;99.90;;;;;;5013364;28;20190;-66
2021/05/29 00:38:52;;;;;;;4.33;3.43;;;6.90;99.90;;;;;;5013246;28;20191;-66
2021/05/29 00:41:18;;;;;;;3.83;3.60;;;6.90;99.90;;;;;;5012886;28;20212;-66
2021/05/29 00:43:45;;;;;;;4.73;3.80;;;6.90;99.90;;;;;;5013180;28;20250;-66
2021/05/29 00:46:11;;;;;;;2.80;2.60;;;6.80;99.90;;;;;;5013017;28;20419;-65
2021/05/29 00:48:38;;;;;;;3.40;3.10;;;6.80;99.90;;;;;;5012472;28;20415;-66
2021/05/29 00:51:04;;;;;;;4.63;3.60;;;6.80;99.90;;;;;;5012721;28;20204;-66
2021/05/29 00:53:32;;;;;;;3.67;3.37;;;6.80;99.90;;;;;;5012936;28;20937;-65
2021/05/29 00:55:59;;;;;;;3.33;2.87;;;6.70;99.90;;;;;;5012981;28;20404;-66
2021/05/29 00:58:25;;;;;;;4.33;3.13;;;6.60;99.90;;;;;;5012999;28;20460;-66
2021/05/29 01:00:52;;;;;;;3.60;3.30;;;6.60;99.90;;;;;;5012566;28;20421;-66
2021/05/29 01:03:18;;;;;;;3.10;2.80;;;6.60;99.90;;;;;;5012916;28;20423;-66
2021/05/29 01:05:45;;;;;;;4.20;3.90;;;6.60;99.90;;;;;;5012829;28;20418;-66
2021/05/29 01:08:11;;;;;;;3.30;3.10;;;6.50;99.90;;;;;;5012653;28;20442;-66
2021/05/29 01:10:38;;;;;;;3.20;3.00;;;6.60;99.90;;;;;;5012353;28;20460;-66
2021/05/29 01:13:05;;;;;;;3.07;2.87;;;6.50;99.90;;;;;;5012908;28;20411;-66
2021/05/29 01:15:39;;;;;;;3.23;3.00;;;6.50;99.90;;;;;;5012639;28;20773;-66
2021/05/29 01:18:07;;;;;;;3.20;3.00;;;6.50;99.90;;;;;;5012855;28;20484;-66
2021/05/29 01:20:34;;;;;;;3.00;2.80;;;6.40;99.90;;;;;;5012118;28;20461;-66
2021/05/29 01:23:00;;;;;;;3.13;2.93;;;6.40;99.90;;;;;;5010916;28;20425;-66
2021/05/29 01:25:46;;;;;;;3.50;3.23;;;6.40;99.90;;;;;;5012773;28;20409;-66
2021/05/29 01:28:26;;;;;;;3.93;3.60;;;6.30;99.90;;;;;;5012559;28;20436;-66
2021/05/29 01:31:01;;;;;;;3.63;3.33;;;6.30;99.90;;;;;;5012069;28;20513;-66
2021/05/29 01:33:32;;;;;;;4.93;3.13;;;6.30;99.90;;;;;;5012563;28;20971;-66
2021/05/29 01:36:01;;;;;;;4.03;3.70;;;6.20;99.90;;;;;;5012320;28;20410;-66
2021/05/29 01:38:27;;;;;;;3.53;3.17;;;6.20;99.90;;;;;;5012563;28;20414;-66
2021/05/29 01:40:57;;;;;;;3.00;2.80;;;6.20;99.90;;;;;;5011868;28;20445;-66
2021/05/29 01:43:23;;;;;;;3.50;3.20;;;6.20;99.90;;;;;;5012304;28;20892;-65
2021/05/29 01:45:48;;;;;;;3.70;3.40;;;6.10;99.90;;;;;;5012224;28;20494;-65
2021/05/29 01:48:17;;;;;;;3.43;2.83;;;6.00;99.90;;;;;;5012636;28;20174;-66
2021/05/29 01:50:46;;;;;;;3.63;3.33;;;6.00;99.90;;;;;;5011834;28;20208;-66
2021/05/29 01:53:14;;;;;;;2.67;2.47;;;6.10;99.90;;;;;;5012332;28;20558;-66
2021/05/29 01:55:40;;;;;;;5.73;2.73;;;6.10;99.90;;;;;;5012095;28;20389;-66
2021/05/29 01:58:06;;;;;;;2.93;2.63;;;6.00;99.90;;;;;;5011788;28;20431;-66
2021/05/29 02:00:33;;;;;;;3.73;3.43;;;5.90;99.90;;;;;;5011841;28;20919;-66
2021/05/29 02:02:58;;;;;;;2.83;2.63;;;5.90;99.90;;;;;;5012090;28;20397;-66
2021/05/29 02:05:30;;;;;;;2.93;2.73;;;5.90;99.90;;;;;;5012057;28;20779;-66
2021/05/29 02:07:59;;;;;;;3.40;2.60;;;5.90;99.90;;;;;;5012240;28;20181;-66
2021/05/29 02:10:27;;;;;;;3.00;2.53;;;5.80;99.90;;;;;;5011635;28;20952;-66
2021/05/29 02:12:55;;;;;;;3.23;2.93;;;5.80;99.90;;;;;;5012012;28;20466;-66
2021/05/29 02:15:28;;;;;;;2.50;2.30;;;5.80;99.90;;;;;;5012095;28;20835;-66
2021/05/29 02:17:56;;;;;;;3.03;2.80;;;5.70;99.90;;;;;;5011987;28;20404;-66
2021/05/29 02:20:37;;;;;;;3.87;3.23;;;5.70;99.90;;;;;;5011957;28;20990;-66
2021/05/29 02:23:03;;;;;;;3.10;2.70;;;5.60;99.90;;;;;;5011897;28;20425;-66
2021/05/29 02:25:29;;;;;;;3.40;3.07;;;5.70;99.90;;;;;;5011859;28;20416;-66
2021/05/29 02:27:55;;;;;;;3.50;3.13;;;5.60;99.90;;;;;;5011896;28;20412;-66
2021/05/29 02:30:22;;;;;;;3.07;2.87;;;5.60;99.90;;;;;;5011450;28;20201;-66
2021/05/29 02:32:48;;;;;;;3.30;3.07;;;5.50;99.90;;;;;;5011970;28;20405;-66
2021/05/29 02:35:14;;;;;;;3.10;2.90;;;5.50;99.90;;;;;;5011817;28;20412;-66
2021/05/29 02:37:40;;;;;;;3.40;3.10;;;5.50;99.90;;;;;;4994154;28;20908;-66
2021/05/29 02:40:06;;;;;;;4.33;3.90;;;5.50;99.90;;;;;;5011331;28;20246;-66
2021/05/29 02:42:31;;;;;;;3.20;2.53;;;5.50;99.90;;;;;;5012405;28;20182;-66
2021/05/29 02:44:57;;;;;;;3.30;3.10;;;5.40;99.90;;;;;;5011704;28;20901;-65
2021/05/29 02:47:23;;;;;;;6.27;3.13;;;5.30;99.90;;;;;;5011767;28;20798;-66
2021/05/29 02:49:49;;;;;;;2.57;2.37;;;5.40;99.90;;;;;;5011340;28;20408;-66
2021/05/29 02:52:14;;;;;;;3.17;2.97;;;5.30;99.90;;;;;;5011538;28;20212;-66
2021/05/29 02:54:43;;;;;;;3.97;2.83;;;5.30;99.90;;;;;;5011514;28;20166;-66
2021/05/29 02:57:10;;;;;;;4.50;2.87;;;5.30;99.90;;;;;;5011633;28;20677;-66
2021/05/29 02:59:36;;;;;;;3.07;2.87;;;5.30;99.90;;;;;;5011402;28;20466;-66
2021/05/29 03:02:04;;;;;;;3.10;2.80;;;5.30;99.90;;;;;;5011465;28;20428;-66
2021/05/29 03:04:30;;;;;;;2.93;2.57;;;5.30;99.90;;;;;;5011647;28;20416;-66
2021/05/29 03:06:55;;;;;;;3.13;2.83;;;5.30;99.90;;;;;;5011452;28;20412;-66
2021/05/29 03:09:21;;;;;;;2.87;2.67;;;5.30;99.90;;;;;;5011492;28;20166;-66
2021/05/29 03:11:46;;;;;;;4.07;3.77;;;5.20;99.90;;;;;;5014107;28;20669;-66
2021/05/29 03:14:12;;;;;;;3.30;3.10;;;5.20;99.90;;;;;;5015064;28;20176;-65
2021/05/29 03:16:38;;;;;;;3.07;2.73;;;5.20;99.90;;;;;;5014941;28;20162;-66
2021/05/29 03:19:03;;;;;;;2.73;2.53;;;5.10;99.90;;;;;;5014908;28;20544;-65
2021/05/29 03:21:29;;;;;;;4.13;3.73;;;5.10;99.90;;;;;;5014557;28;20193;-65
2021/05/29 03:23:54;;;;;;;4.27;2.90;;;5.10;99.90;;;;;;5014867;28;20204;-65
2021/05/29 03:26:20;;;;;;;4.43;2.77;;;5.10;99.90;;;;;;5014718;28;20224;-65
2021/05/29 03:28:46;;;;;;;2.83;2.63;;;5.10;99.90;;;;;;5014736;28;20177;-66
2021/05/29 03:31:11;;;;;;;3.00;2.80;;;5.00;99.90;;;;;;5014294;28;20698;-65
2021/05/29 03:33:37;;;;;;;3.20;2.33;;;5.00;99.90;;;;;;5014636;28;20256;-65
2021/05/29 03:36:02;;;;;;;2.70;2.50;;;5.00;99.90;;;;;;5014487;28;20165;-65
2021/05/29 03:38:28;;;;;;;4.63;2.60;;;5.10;99.90;;;;;;5014579;28;20194;-66
2021/05/29 03:40:54;;;;;;;3.27;3.00;;;5.10;99.90;;;;;;5014045;28;20290;-66
2021/05/29 03:43:20;;;;;;;2.90;2.67;;;5.00;99.90;;;;;;5014646;28;20220;-65
2021/05/29 03:45:46;;;;;;;3.87;3.03;;;5.00;99.90;;;;;;5014354;28;20448;-65
2021/05/29 03:48:11;;;;;;;3.20;2.63;;;5.00;99.90;;;;;;5014395;28;20180;-65
2021/05/29 03:50:39;;;;;;;3.30;3.00;;;5.00;99.90;;;;;;5013821;28;20280;-65
2021/05/29 03:53:06;;;;;;;5.23;2.90;;;5.00;99.90;;;;;;5014317;28;20171;-66
2021/05/29 03:55:33;;;;;;;5.53;2.63;;;5.00;99.90;;;;;;5014158;28;20405;-66
2021/05/29 03:57:59;;;;;;;2.70;2.50;;;5.00;99.90;;;;;;5014227;28;20784;-65
2021/05/29 04:00:25;;;;;;;3.17;2.90;;;5.10;99.90;;;;;;5013797;28;20436;-65
2021/05/29 04:02:51;;;;;;;2.80;2.67;;;5.00;99.90;;;;;;5014115;28;20470;-65
2021/05/29 04:05:18;;;;;;;3.37;3.10;;;5.00;99.90;;;;;;5013940;28;20177;-65
2021/05/29 04:07:44;;;;;;;2.43;2.23;;;5.10;99.90;;;;;;5014041;28;20802;-65
2021/05/29 04:10:12;;;;;;;2.93;2.73;;;5.10;99.90;;;;;;5013475;28;20534;-65
2021/05/29 04:12:38;;;;;;;3.40;3.10;;;5.30;99.90;;;;;;5014018;28;20519;-65
2021/05/29 04:15:06;;;;;;;3.10;2.90;;;5.30;99.90;;;;;;5013919;28;20412;-66
2021/05/29 04:17:32;;;;;;;7.10;3.60;;;5.40;99.90;;;;;;5013838;28;20412;-66
2021/05/29 04:19:58;;;;;;;3.47;3.10;;;5.40;99.90;;;;;;5013422;28;20424;-65
2021/05/29 04:22:24;;;;;;;3.47;3.17;;;5.40;99.90;;;;;;4996105;28;20173;-66
2021/05/29 04:24:50;;;;;;;2.77;2.57;;;5.40;99.90;;;;;;5013625;28;20656;-65
2021/05/29 04:27:17;;;;;;;3.90;3.60;;;5.50;99.90;;;;;;5013711;28;20400;-66
2021/05/29 04:29:43;;;;;;;3.10;2.80;;;5.60;99.90;;;;;;5013246;28;20642;-65
2021/05/29 04:32:08;;;;;;;3.30;3.00;;;5.60;99.90;;;;;;4995775;28;20475;-65
2021/05/29 04:34:34;;;;;;;3.60;2.80;;;5.70;99.90;;;;;;5013447;28;20188;-66
2021/05/29 04:37:00;;;;;;;3.17;2.97;;;5.80;99.90;;;;;;5013491;28;20258;-66
2021/05/29 04:39:26;;;;;;;3.77;3.40;;;5.80;99.90;;;;;;5013166;28;20452;-66
2021/05/29 04:41:51;;;;;;;3.73;3.53;;;5.90;99.90;;;;;;5013205;28;20287;-66
2021/05/29 04:44:17;;;;;;;4.67;4.27;;;5.90;99.90;;;;;;5013392;28;20180;-65
2021/05/29 04:46:50;;;;;;;5.77;3.67;;;6.00;99.90;;;;;;5013234;28;20650;-66
2021/05/29 04:49:18;;;;;;;3.40;3.20;;;6.10;99.90;;;;;;5013110;28;20203;-65
2021/05/29 04:51:45;;;;;;;4.30;3.90;;;6.20;99.90;;;;;;5013034;28;20796;-65
2021/05/29 04:54:11;;;;;;;2.50;2.30;;;6.30;99.90;;;;;;5013079;28;20411;-66
2021/05/29 04:56:36;;;;;;;4.23;2.50;;;6.40;99.90;;;;;;5013043;28;20772;-66
2021/05/29 04:59:02;;;;;;;3.10;2.63;;;6.60;99.90;;;;;;5013085;28;20405;-66
2021/05/29 05:01:30;;;;;;;2.80;2.60;;;6.70;99.90;;;;;;5012683;28;20225;-66
2021/05/29 05:03:57;;;;;;;2.70;2.50;;;6.70;99.90;;;;;;5013316;28;20528;-66
2021/05/29 05:06:22;;;;;;;2.80;2.60;;;6.90;99.90;;;;;;5012850;28;20499;-66
2021/05/29 05:08:48;;;;;;;2.57;2.40;;;7.00;99.90;;;;;;5012880;28;20501;-65
2021/05/29 05:11:13;;;;;;;2.07;1.93;;;7.20;99.90;;;;;;5012430;28;20202;-65
2021/05/29 05:13:39;;;;;;;2.93;2.73;;;7.20;99.90;;;;;;5012817;28;20278;-66
2021/05/29 05:16:04;;;;;;;1.77;1.67;;;7.40;99.90;;;;;;5012638;28;20172;-65
2021/05/29 05:18:30;;;;;;;1.70;1.60;;;7.60;99.90;;;;;;4995046;28;20175;-66
2021/05/29 05:20:55;;;;;;;2.03;1.93;;;7.60;99.90;;;;;;5012333;28;20195;-65
2021/05/29 05:23:22;;;;;;;2.20;2.00;;;7.80;99.90;;;;;;5012596;28;20653;-66
2021/05/29 05:25:49;;;;;;;2.37;2.17;;;7.90;99.90;;;;;;5012510;28;20198;-66
2021/05/29 05:28:14;;;;;;;3.10;2.80;;;8.00;99.90;;;;;;5012625;28;20888;-66
2021/05/29 05:30:41;;;;;;;2.47;2.27;;;8.10;99.90;;;;;;5012053;28;20477;-66
2021/05/29 05:33:07;;;;;;;2.20;2.10;;;8.10;99.90;;;;;;5012079;28;20200;-66
2021/05/29 05:35:32;;;;;;;2.30;2.20;;;8.20;99.90;;;;;;5012445;28;20404;-66
2021/05/29 05:37:58;;;;;;;3.17;2.97;;;8.30;99.90;;;;;;5012432;28;20455;-66
2021/05/29 05:40:24;;;;;;;7.53;2.83;;;8.30;99.90;;;;;;5012000;28;20277;-66
2021/05/29 05:42:49;;;;;;;19.97;4.70;;;8.40;99.90;;;;;;5012463;28;20219;-65
2021/05/29 05:45:16;;;;;;;6.77;4.50;;;8.50;99.90;;;;;;5012225;28;20181;-66
2021/05/29 05:47:42;;;;;;;8.10;4.23;;;8.70;99.90;;;;;;5012300;28;20181;-65
2021/05/29 05:50:11;;;;;;;7.43;3.97;;;8.90;99.90;;;;;;5011862;28;20435;-66
2021/05/29 05:52:40;;;;;;;3.90;3.50;;;8.90;99.90;;;;;;5012276;28;20396;-65
2021/05/29 05:55:07;;;;;;;4.33;3.40;;;9.10;99.90;;;;;;5012200;28;20406;-65
2021/05/29 05:57:33;;;;;;;4.00;3.70;;;9.20;99.90;;;;;;5012387;28;20415;-66
2021/05/29 06:00:00;;;;;;;5.27;3.90;;;9.30;99.90;;;;;;5011807;28;20923;-66
2021/05/29 06:02:25;;;;;;;4.13;3.83;;;9.50;99.90;;;;;;5012165;28;20396;-66
2021/05/29 06:04:51;;;;;;;4.80;4.40;;;9.60;99.90;;;;;;5012099;28;20519;-66
2021/05/29 06:07:17;;;;;;;4.27;3.90;;;9.70;99.90;;;;;;5012125;28;20454;-66
2021/05/29 06:09:43;;;;;;;3.57;3.37;;;9.80;99.90;;;;;;5011799;28;20901;-65
2021/05/29 06:12:09;;;;;;;3.60;3.23;;;9.90;99.90;;;;;;5011892;28;20208;-66
2021/05/29 06:20:08;;;;;;;4.80;3.57;;;10.30;99.90;;;;;;5011878;28;20404;-66
2021/05/29 06:22:34;;;;;;;3.57;3.27;;;10.40;99.90;;;;;;5011901;28;20414;-66
2021/05/29 06:24:59;;;;;;;3.93;3.20;;;10.50;99.90;;;;;;5011845;28;20909;-66
2021/05/29 06:27:25;;;;;;;3.23;2.93;;;10.70;99.90;;;;;;5011960;28;20173;-66
2021/05/29 06:29:50;;;;;;;3.90;3.60;;;10.80;99.90;;;;;;5011566;28;20169;-66
2021/05/29 06:32:16;;;;;;;4.40;4.00;;;11.00;99.90;;;;;;5011732;28;20697;-66
2021/05/29 06:34:41;;;;;;;3.27;2.97;;;11.10;99.90;;;;;;5011822;28;20601;-66
2021/05/29 06:37:07;;;;;;;3.17;2.77;;;11.30;99.90;;;;;;5011738;28;20643;-65
2021/05/29 06:39:33;;;;;;;3.50;2.50;;;11.40;99.90;;;;;;5011551;28;20171;-66
2021/05/29 06:41:59;;;;;;;3.80;3.50;;;11.50;99.90;;;;;;5011573;28;20248;-66
2021/05/29 06:44:25;;;;;;;2.70;2.50;;;11.60;99.20;;;;;;5011770;28;20179;-66
2021/05/29 06:46:50;;;;;;;3.10;2.90;;;11.70;98.60;;;;;;5014930;28;20408;-66
2021/05/29 06:49:19;;;;;;;3.23;2.67;;;11.90;98.50;;;;;;5015322;28;20169;-66
2021/05/29 06:54:53;;;;;;;4.47;2.50;;;12.10;97.10;;;;;;5015695;28;20930;-65
2021/05/29 07:00:06;;;;;;;2.70;2.50;;;12.30;96.00;;;;;;5014828;28;20473;-65
2021/05/29 07:02:33;;;;;;;4.53;2.97;;;12.50;96.30;;;;;;5015225;28;20497;-66
2021/05/29 07:04:58;;;;;;;3.00;2.80;;;12.60;96.10;;;;;;5015094;28;20400;-66
2021/05/29 07:07:24;;;;;;;2.90;2.70;;;12.70;95.80;;;;;;5015194;28;20410;-66
2021/05/29 07:09:49;;;;;;;4.43;3.50;;;12.80;95.90;;;;;;5014825;28;20165;-66
2021/05/29 07:12:15;;;;;;;2.40;2.20;;;12.90;93.80;;;;;;5014960;28;20216;-66
2021/05/29 07:14:40;;;;;;;3.23;2.93;;;13.00;94.00;;;;;;5014922;28;20169;-66
2021/05/29 07:17:07;;;;;;;3.00;2.80;;;13.20;94.90;;;;;;5014949;28;20202;-66
2021/05/29 07:19:33;;;;;;;2.80;2.60;;;13.30;94.20;;;;;;5014843;28;20173;-66
2021/05/29 07:21:59;;;;;;;3.60;2.83;;;13.30;94.20;;;;;;5014781;28;20428;-67
2021/05/29 07:24:25;;;;;;;2.20;2.00;;;13.40;94.50;;;;;;5014910;28;20208;-66
2021/05/29 07:26:51;;;;;;;2.80;2.60;;;13.40;93.90;;;;;;5014736;28;20181;-66
2021/05/29 07:29:17;;;;;;;2.83;2.27;;;13.50;93.70;;;;;;5014485;28;20174;-66
2021/05/29 07:31:44;;;;;;;2.67;2.47;;;13.60;93.30;;;;;;5014736;28;20464;-66
2021/05/29 07:34:10;;;;;;;2.70;2.50;;;13.60;93.50;;;;;;5014626;28;20458;-66
2021/05/29 07:36:36;;;;;;;3.90;2.53;;;13.70;93.30;;;;;;5014457;28;20400;-67
2021/05/29 07:39:01;;;;;;;3.60;3.30;;;13.80;93.00;;;;;;5014604;28;20408;-66
2021/05/29 07:41:27;;;;;;;2.90;2.70;;;14.00;92.80;;;;;;5014146;28;20216;-66
2021/05/29 07:43:53;;;;;;;2.30;2.10;;;14.20;92.50;;;;;;5014456;28;20170;-66
2021/05/29 07:46:19;;;;;;;2.90;2.57;;;14.30;92.10;;;;;;5014415;28;20180;-66
2021/05/29 07:48:45;;;;;;;7.50;2.50;;;14.40;91.30;;;;;;5014407;28;20165;-67
2021/05/29 07:51:11;;;;;;;2.67;2.33;;;14.60;91.00;;;;;;5013991;28;21061;-66
2021/05/29 07:53:41;;;;;;;2.63;2.43;;;14.60;91.80;;;;;;5014379;28;20404;-66
2021/05/29 07:56:09;;;;;;;2.40;2.20;;;14.50;90.50;;;;;;5013782;28;20408;-67
2021/05/29 07:58:35;;;;;;;2.60;2.33;;;14.50;90.40;;;;;;5014186;28;20897;-66
2021/05/29 08:01:01;;;;;;;2.67;2.47;;;14.60;90.40;;;;;;5013899;28;20942;-66
2021/05/29 08:03:29;;;;;;;2.97;2.77;;;14.50;90.60;;;;;;5014117;28;20432;-67
2021/05/29 08:05:55;;;;;;;1.70;1.60;;;14.60;91.20;;;;;;5014077;28;20409;-66
2021/05/29 08:08:25;;;;;;;3.27;2.57;;;14.80;90.20;;;;;;5014044;28;20404;-66
2021/05/29 08:10:53;;;;;;;2.20;1.80;;;15.00;90.60;;;;;;5013492;28;20874;-66
2021/05/29 08:13:19;;;;;;;3.43;2.13;;;15.40;90.20;;;;;;5013945;28;20483;-66
2021/05/29 08:15:46;;;;;;;1.97;1.87;;;15.50;87.10;;;;;;5013894;28;20408;-66
2021/05/29 08:18:15;;;;;;;1.90;1.80;;;15.70;84.90;;;;;;5013840;28;20484;-67
2021/05/29 08:20:41;;;;;;;3.10;2.43;;;15.80;84.40;;;;;;5013456;28;20575;-67
2021/05/29 08:23:07;;;;;;;2.60;2.30;;;15.90;84.90;;;;;;5013686;28;20416;-67
2021/05/29 08:25:33;;;;;;;3.20;2.90;;;16.10;85.80;;;;;;5013563;28;20408;-66
2021/05/29 08:28:00;;;;;;;2.40;2.30;;;16.20;87.20;;;;;;5013695;28;20181;-67
2021/05/29 08:30:26;;;;;;;2.40;2.03;;;16.20;83.50;;;;;;4995846;28;20819;-66
2021/05/29 08:32:52;;;;;;;2.70;2.50;;;16.20;82.20;;;;;;5013507;28;20542;-66
2021/05/29 08:35:18;;;;;;;3.33;2.60;;;16.20;83.90;;;;;;5013500;28;20440;-67
2021/05/29 08:37:46;;;;;;;1.33;1.33;;;16.30;82.80;;;;;;5013554;28;20181;-66
2021/05/29 08:40:14;;;;;;;2.63;2.20;;;16.30;79.70;;;;;;5012899;28;20519;-67
2021/05/29 08:42:42;;;;;;;2.67;2.47;;;16.40;83.00;;;;;;5014104;28;20479;-66
2021/05/29 08:45:09;;;;;;;1.97;1.87;;;16.50;79.10;;;;;;5013399;28;20404;-66
2021/05/29 08:47:35;;;;;;;2.73;2.53;;;16.70;81.40;;;;;;5013312;28;20673;-66
2021/05/29 08:50:00;;;;;;;2.73;2.47;;;16.80;79.70;;;;;;5012858;28;20404;-66
2021/05/29 08:52:26;;;;;;;2.60;2.23;;;16.80;81.50;;;;;;5013509;28;20412;-66
2021/05/29 08:54:52;;;;;;;3.50;2.30;;;16.90;81.00;;;;;;5013019;28;20169;-66
2021/05/29 08:57:18;;;;;;;2.67;2.47;;;17.10;80.60;;;;;;5013175;28;20634;-66
2021/05/29 08:59:44;;;;;;;3.63;2.53;;;17.10;80.80;;;;;;5012887;28;20169;-66
2021/05/29 09:02:10;;;;;;;4.13;2.73;;;17.40;78.20;;;;;;4995555;28;20435;-66
2021/05/29 09:04:56;;;;;;;4.90;3.00;;;17.40;75.00;;;;;;5012990;28;20635;-66
2021/05/29 09:07:26;;;;;;;5.30;2.87;;;17.50;76.60;;;;;;5012644;28;20420;-66
2021/05/29 09:10:14;;;;;;;8.20;2.73;;;17.60;77.00;;;;;;5011965;28;20400;-65
2021/05/29 09:13:00;;;;;;;4.30;2.50;;;17.70;77.20;;;;;;5011696;28;20401;-66
2021/05/29 09:15:42;;;;;;;2.20;2.10;;;18.00;80.20;;;;;;5012776;28;20454;-66
2021/05/29 09:18:07;;;;;;;2.50;2.20;;;18.40;76.60;;;;;;5012746;28;20815;-66
2021/05/29 09:20:33;;;;;;;2.50;2.30;;;18.40;72.90;;;;;;5012464;28;20515;-66
2021/05/29 09:23:02;;;;;;;2.43;2.33;;;18.40;72.50;;;;;;5012707;28;20257;-66
2021/05/29 09:25:32;;;;;;;4.07;2.47;;;18.70;77.30;;;;;;5012575;28;20816;-66
2021/05/29 09:28:06;;;;;;;3.10;1.97;;;19.20;75.30;;;;;;5012708;28;20821;-66
2021/05/29 09:30:37;;;;;;;2.50;2.30;;;19.30;73.10;;;;;;5012341;28;20495;-66
2021/05/29 09:33:35;;;;;;;2.60;2.40;;;19.40;73.00;;;;;;5012452;28;20893;-66
2021/05/29 09:36:10;;;;;;;2.50;2.23;;;19.60;75.70;;;;;;5011676;28;20423;-66
2021/05/29 09:38:50;;;;;;;3.30;1.90;;;19.50;71.80;;;;;;5012434;28;20427;-65
2021/05/29 09:41:31;;;;;;;4.60;2.10;;;19.40;71.60;;;;;;5011997;28;20513;-66
2021/05/29 09:44:07;;;;;;;2.80;2.60;;;19.80;73.90;;;;;;5012319;28;20921;-66
2021/05/29 09:46:53;;;;;;;4.57;2.57;;;19.90;71.70;;;;;;5012263;28;20407;-66
2021/05/29 09:49:18;;;;;;;3.10;2.30;;;19.70;66.80;;;;;;5012121;28;20411;-66
2021/05/29 09:51:44;;;;;;;3.80;3.20;;;19.80;72.20;;;;;;5012065;28;20459;-66
2021/05/29 09:54:11;;;;;;;2.90;2.60;;;20.00;69.90;;;;;;5012295;28;20252;-66
2021/05/29 09:56:41;;;;;;;2.97;2.77;;;20.10;69.80;;;;;;5012221;28;20193;-66
2021/05/29 09:59:11;;;;;;;2.60;2.40;;;20.20;69.60;;;;;;5012008;28;20405;-67
2021/05/29 10:01:39;;;;;;;3.47;2.80;;;20.40;72.50;;;;;;5012067;28;20829;-66
2021/05/29 10:04:05;;;;;;;3.00;2.80;;;20.70;71.30;;;;;;5012159;28;20404;-66
2021/05/29 10:06:31;;;;;;;2.93;2.70;;;20.60;67.40;;;;;;5012067;28;20411;-66
2021/05/29 10:08:57;;;;;;;3.10;2.10;;;20.60;70.20;;;;;;5012084;28;20412;-66
2021/05/29 10:11:22;;;;;;;2.73;2.23;;;20.70;65.60;;;;;;5011649;28;20201;-66
2021/05/29 10:13:48;;;;;;;2.53;2.40;;;21.00;70.00;;;;;;5012094;28;20522;-66
2021/05/29 10:16:15;;;;;;;3.20;2.90;;;21.10;67.50;;;;;;5011984;28;20251;-66
2021/05/29 10:18:50;;;;;;;3.70;2.90;;;21.10;67.60;;;;;;5011985;28;20177;-66
2021/05/29 10:21:16;;;;;;;2.90;2.70;;;21.40;68.20;;;;;;5015749;28;20423;-66
2021/05/29 10:23:46;;;;;;;2.77;2.57;;;21.50;69.00;;;;;;5016293;28;20821;-66
2021/05/29 10:26:14;;;;;;;4.40;2.40;;;21.70;70.20;;;;;;5015857;28;20423;-66
2021/05/29 10:28:40;;;;;;;4.30;2.67;;;22.00;65.20;;;;;;5015825;28;20426;-66
2021/05/29 10:31:06;;;;;;;4.20;2.80;;;22.20;67.90;;;;;;5015429;28;20462;-66
2021/05/29 10:33:39;;;;;;;3.67;2.60;;;22.00;65.90;;;;;;5015884;28;20193;-66
2021/05/29 10:36:07;;;;;;;2.73;2.50;;;21.90;67.60;;;;;;5015684;28;20400;-67
2021/05/29 10:38:43;;;;;;;3.37;3.20;;;22.10;66.60;;;;;;5015741;28;20483;-66
2021/05/29 10:41:08;;;;;;;5.00;3.00;;;22.20;64.90;;;;;;5015212;28;20806;-66
2021/05/29 10:43:36;;;;;;;3.10;2.90;;;21.80;66.80;;;;;;5015644;28;20499;-66
2021/05/29 10:46:09;;;;;;;4.20;3.80;;;22.20;69.50;;;;;;5015464;28;20654;-66
2021/05/29 10:48:50;;;;;;;3.93;3.60;;;22.50;69.00;;;;;;5015664;28;20470;-66
2021/05/29 10:51:16;;;;;;;3.87;3.30;;;23.00;65.90;;;;;;5015072;28;20547;-66
2021/05/29 10:53:55;;;;;;;3.63;3.40;;;23.60;69.10;;;;;;5015432;28;20483;-67
2021/05/29 10:56:20;;;;;;;4.63;4.23;;;23.20;65.10;;;;;;5015511;28;20450;-66
2021/05/29 10:59:18;;;;;;;4.00;3.60;;;22.90;66.00;;;;;;5015385;28;20412;-67
2021/05/29 11:01:45;;;;;;;3.53;3.23;;;22.60;64.90;;;;;;5015106;28;20194;-66
2021/05/29 11:04:16;;;;;;;4.33;3.50;;;22.60;64.70;;;;;;5015481;28;20411;-67
2021/05/29 11:06:50;;;;;;;3.90;3.60;;;22.40;66.30;;;;;;5015300;28;20415;-67
2021/05/29 11:09:18;;;;;;;7.63;3.57;;;22.70;68.80;;;;;;5014948;28;20403;-66
2021/05/29 11:11:47;;;;;;;3.80;3.50;;;23.10;66.50;;;;;;5014892;28;20987;-67
2021/05/29 11:14:26;;;;;;;3.77;3.43;;;23.40;68.10;;;;;;5014891;28;20407;-67
2021/05/29 11:16:53;;;;;;;4.60;3.00;;;23.70;66.40;;;;;;5015172;28;20491;-66
2021/05/29 11:19:22;;;;;;;3.93;3.10;;;24.20;66.40;;;;;;5014874;28;20420;-67
2021/05/29 11:22:07;;;;;;;3.90;3.30;;;24.20;64.90;;;;;;5014783;28;20428;-67
2021/05/29 11:24:49;;;;;;;4.17;3.50;;;24.10;68.90;;;;;;5014988;28;20404;-67
2021/05/29 11:27:26;;;;;;;4.60;3.63;;;24.50;68.30;;;;;;5014931;28;20404;-68
2021/05/29 11:29:51;;;;;;;4.00;3.60;;;24.70;63.20;;;;;;5014519;28;20412;-67
2021/05/29 11:33:12;;;;;;;4.73;4.30;;;24.70;61.20;;;;;;5013924;28;20532;-67
2021/05/29 11:35:45;;;;;;;4.50;4.20;;;24.80;64.00;;;;;;5014652;28;20240;-66
2021/05/29 11:38:24;;;;;;;3.40;3.20;;;24.90;61.90;;;;;;5014678;28;20934;-68
2021/05/29 11:40:55;;;;;;;3.47;3.27;;;25.00;61.70;;;;;;5014046;28;20816;-66
2021/05/29 11:43:34;;;;;;;8.60;2.90;;;25.10;64.40;;;;;;5014795;28;20434;-66
2021/05/29 11:46:02;;;;;;;3.17;2.87;;;25.00;64.50;;;;;;5014450;28;20491;-67
2021/05/29 11:48:42;;;;;;;2.30;2.20;;;25.40;60.60;;;;;;5014394;28;20470;-66
2021/05/29 11:51:09;;;;;;;3.10;2.90;;;25.60;60.10;;;;;;5014159;28;20539;-67
2021/05/29 11:53:45;;;;;;;2.90;2.50;;;25.80;63.50;;;;;;5014352;28;20404;-67
2021/05/29 11:56:19;;;;;;;2.60;2.40;;;25.80;61.90;;;;;;5014254;28;20380;-66
2021/05/29 11:58:48;;;;;;;3.33;3.10;;;25.60;59.70;;;;;;5014175;28;20397;-67
2021/05/29 12:01:16;;;;;;;3.33;2.70;;;25.60;61.00;;;;;;5013928;28;20432;-67
2021/05/29 12:03:44;;;;;;;2.67;2.47;;;25.60;63.70;;;;;;5014202;28;20415;-67
2021/05/29 12:06:11;;;;;;;4.13;3.00;;;25.90;65.10;;;;;;5014141;28;20409;-66
2021/05/29 12:08:57;;;;;;;2.73;2.53;;;25.90;61.50;;;;;;5013934;28;20400;-67
2021/05/29 12:11:31;;;;;;;2.40;2.20;;;26.10;59.60;;;;;;5013904;28;20479;-67
2021/05/29 12:14:09;;;;;;;3.60;3.40;;;26.30;60.80;;;;;;5013995;28;20405;-66
2021/05/29 12:16:41;;;;;;;3.10;2.83;;;25.70;56.80;;;;;;5013914;28;20423;-66
2021/05/29 12:19:07;;;;;;;2.93;2.73;;;25.40;59.40;;;;;;5013632;28;20393;-68
2021/05/29 12:22:04;;;;;;;2.83;2.63;;;25.20;59.70;;;;;;5013689;28;20432;-67
2021/05/29 12:25:05;;;;;;;2.70;2.37;;;24.90;60.00;;;;;;5012940;28;20455;-67
2021/05/29 12:27:33;;;;;;;2.10;2.00;;;24.90;57.80;;;;;;5013709;28;20407;-67
2021/05/29 12:30:10;;;;;;;2.57;2.47;;;25.30;59.30;;;;;;5013390;28;20462;-67
2021/05/29 12:32:58;;;;;;;2.50;2.30;;;25.60;61.20;;;;;;5013744;28;20426;-67
2021/05/29 12:35:37;;;;;;;2.43;2.23;;;25.90;60.60;;;;;;5013467;28;20400;-68
2021/05/29 12:38:13;;;;;;;2.40;2.03;;;25.00;58.30;;;;;;5013548;28;20415;-67
2021/05/29 12:40:52;;;;;;;2.20;2.00;;;24.70;56.40;;;;;;5013010;28;20447;-66
2021/05/29 12:43:17;;;;;;;1.67;1.57;;;24.20;59.30;;;;;;5012363;28;20403;-66
2021/05/29 12:45:43;;;;;;;1.97;1.87;;;24.70;59.40;;;;;;5013321;28;20499;-66
2021/05/29 12:48:11;;;;;;;3.77;3.47;;;24.50;55.70;;;;;;5013406;28;20176;-67
2021/05/29 12:53:28;;;;;;;2.63;2.43;;;24.30;65.60;;;;;;5013304;28;20451;-67
2021/05/29 12:56:12;;;;;;;2.70;2.60;;;24.30;60.70;;;;;;5013156;28;20499;-67
2021/05/29 12:58:38;;;;;;;2.17;2.00;;;24.70;58.50;;;;;;5013121;28;21146;-67
2021/05/29 13:11:55;;;;;;;5.10;4.80;;;26.00;59.60;;;;;;5012718;28;20521;-67
2021/05/29 13:14:29;;;;;;;4.07;3.77;;;26.30;58.60;;;;;;5012886;28;20404;-67
2021/05/29 13:16:54;;;;;;;8.73;4.17;;;26.30;60.00;;;;;;5012793;28;20412;-66
2021/05/29 13:19:23;;;;;;;3.90;3.60;;;26.60;62.30;;;;;;5012493;28;20934;-67
2021/05/29 13:21:53;;;;;;;5.27;3.97;;;26.80;56.90;;;;;;5012626;28;20204;-66
2021/05/29 13:24:44;;;;;;;4.63;4.33;;;27.00;58.80;;;;;;5012903;28;20400;-67
2021/05/29 13:27:12;;;;;;;5.33;4.50;;;26.90;57.70;;;;;;5012664;28;20436;-68